createdAt,value
2019-04-14T00:01:15.689Z,8.00
2019-04-14T00:02:38.220Z,7.90
2019-04-14T00:04:05.264Z,7.90
2019-04-14T00:05:14.626Z,7.90
2019-04-14T00:06:20.121Z,7.90
2019-04-14T00:07:25.450Z,7.90
2019-04-14T00:08:30.630Z,7.90
2019-04-14T00:09:35.766Z,7.90
2019-04-14T00:10:40.229Z,8.00
2019-04-14T00:11:45.942Z,8.00
2019-04-14T00:12:51.474Z,7.90
2019-04-14T00:13:56.670Z,7.80
2019-04-14T00:15:02.400Z,7.90
2019-04-14T00:16:07.410Z,7.90
2019-04-14T00:17:12.914Z,7.90
2019-04-14T00:18:18.565Z,8.00
2019-04-14T00:19:23.836Z,7.90
2019-04-14T00:20:29.318Z,7.90
2019-04-14T00:21:34.628Z,8.00
2019-04-14T00:22:38.896Z,8.00
2019-04-14T00:23:43.492Z,7.90
2019-04-14T00:24:48.930Z,7.90
2019-04-14T00:25:54.431Z,7.80
2019-04-14T00:26:59.539Z,7.90
2019-04-14T00:28:05.211Z,7.90
2019-04-14T00:29:09.579Z,8.00
2019-04-14T00:30:14.499Z,8.00
2019-04-14T00:31:19.486Z,7.90
2019-04-14T00:32:24.820Z,7.90
2019-04-14T00:33:30.163Z,7.90
2019-04-14T00:34:52.742Z,7.90
2019-04-14T00:36:10.837Z,7.90
2019-04-14T00:37:34.237Z,7.80
2019-04-14T00:38:41.395Z,7.90
2019-04-14T00:39:51.058Z,7.90
2019-04-14T00:41:14.470Z,7.90
2019-04-14T00:42:47.360Z,7.90
2019-04-14T00:44:23.238Z,7.90
2019-04-14T00:46:55.972Z,7.90
2019-04-14T00:48:22.956Z,7.90
2019-04-14T00:49:28.907Z,7.90
2019-04-14T00:50:34.181Z,8.00
2019-04-14T00:51:40.816Z,8.00
2019-04-14T00:52:45.629Z,8.00
2019-04-14T00:53:51.111Z,8.00
2019-04-14T00:54:56.471Z,7.90
2019-04-14T00:56:01.825Z,7.90
2019-04-14T00:57:07.310Z,7.90
2019-04-14T00:58:12.691Z,7.80
2019-04-14T00:59:17.930Z,7.80
2019-04-14T01:00:23.374Z,7.90
2019-04-14T01:01:28.616Z,7.90
2019-04-14T01:02:33.973Z,7.80
2019-04-14T01:03:39.380Z,7.80
2019-04-14T01:04:44.714Z,7.80
2019-04-14T01:05:50.273Z,7.80
2019-04-14T01:06:55.484Z,7.80
2019-04-14T01:08:00.890Z,7.80
2019-04-14T01:09:08.558Z,7.80
2019-04-14T01:10:13.145Z,7.80
2019-04-14T01:11:18.178Z,7.80
2019-04-14T01:12:23.526Z,7.80
2019-04-14T01:13:28.813Z,7.80
2019-04-14T01:14:34.237Z,7.80
2019-04-14T01:15:48.120Z,7.80
2019-04-14T01:16:45.185Z,7.70
2019-04-14T01:17:50.585Z,7.80
2019-04-14T01:18:55.856Z,7.70
2019-04-14T01:20:01.408Z,7.70
2019-04-14T01:21:06.695Z,7.70
2019-04-14T01:22:11.917Z,7.70
2019-04-14T01:23:17.184Z,7.80
2019-04-14T01:24:22.733Z,7.90
2019-04-14T01:25:28.109Z,7.80
2019-04-14T01:26:33.180Z,7.80
2019-04-14T01:27:38.491Z,7.80
2019-04-14T01:28:43.979Z,7.90
2019-04-14T01:29:49.447Z,7.80
2019-04-14T01:30:54.457Z,7.80
2019-04-14T01:32:00.049Z,7.80
2019-04-14T01:33:05.429Z,7.80
2019-04-14T01:34:10.787Z,7.80
2019-04-14T01:35:15.937Z,7.80
2019-04-14T01:36:21.277Z,7.70
2019-04-14T01:37:26.812Z,7.70
2019-04-14T01:38:31.951Z,7.70
2019-04-14T01:39:37.199Z,7.80
2019-04-14T01:40:42.431Z,7.80
2019-04-14T01:41:47.833Z,7.70
2019-04-14T01:42:52.756Z,7.70
2019-04-14T01:43:58.249Z,7.70
2019-04-14T01:45:03.636Z,7.70
2019-04-14T01:46:16.065Z,7.70
2019-04-14T01:47:13.962Z,7.70
2019-04-14T01:48:19.254Z,7.70
2019-04-14T01:49:24.698Z,7.70
2019-04-14T01:50:43.061Z,7.70
2019-04-14T01:51:59.230Z,7.80
2019-04-14T01:53:18.727Z,7.70
2019-04-14T01:54:41.032Z,7.70
2019-04-14T01:55:55.501Z,7.70
2019-04-14T01:57:15.391Z,7.70
2019-04-14T01:58:22.905Z,7.60
2019-04-14T01:59:28.286Z,7.60
2019-04-14T02:00:57.813Z,7.60
2019-04-14T02:02:03.000Z,7.50
2019-04-14T02:03:08.469Z,7.60
2019-04-14T02:04:13.863Z,7.60
2019-04-14T02:05:19.215Z,7.60
2019-04-14T02:06:24.550Z,7.60
2019-04-14T02:07:29.764Z,7.60
2019-04-14T02:08:35.199Z,7.60
2019-04-14T02:09:40.118Z,7.60
2019-04-14T02:10:45.626Z,7.60
2019-04-14T02:11:51.017Z,7.60
2019-04-14T02:12:56.396Z,7.60
2019-04-14T02:14:01.610Z,7.50
2019-04-14T02:15:06.998Z,7.50
2019-04-14T02:16:21.899Z,7.50
2019-04-14T02:17:17.783Z,7.60
2019-04-14T02:18:22.925Z,7.60
2019-04-14T02:19:28.368Z,7.60
2019-04-14T02:20:33.868Z,7.60
2019-04-14T02:21:38.851Z,7.60
2019-04-14T02:22:44.125Z,7.60
2019-04-14T02:23:49.701Z,7.60
2019-04-14T02:24:54.902Z,7.70
2019-04-14T02:26:00.127Z,7.60
2019-04-14T02:27:05.554Z,7.50
2019-04-14T02:28:11.139Z,7.50
2019-04-14T02:29:16.777Z,7.50
2019-04-14T02:30:26.230Z,7.50
2019-04-14T02:31:56.976Z,7.50
2019-04-14T02:33:00.913Z,7.60
2019-04-14T02:34:08.194Z,7.60
2019-04-14T02:35:17.979Z,7.60
2019-04-14T02:36:27.985Z,7.50
2019-04-14T02:38:47.332Z,7.40
2019-04-14T02:39:39.000Z,7.50
2019-04-14T02:40:49.175Z,7.30
2019-04-14T02:44:07.459Z,7.40
2019-04-14T02:45:08.232Z,7.40
2019-04-14T02:46:10.009Z,7.40
2019-04-14T02:47:39.483Z,7.40
2019-04-14T02:48:41.415Z,7.30
2019-04-14T02:50:30.615Z,7.40
2019-04-14T02:51:40.619Z,7.30
2019-04-14T02:54:59.524Z,7.20
2019-04-14T02:56:45.297Z,7.20
2019-04-14T02:57:20.502Z,7.20
2019-04-14T02:58:40.400Z,7.20
2019-04-14T02:59:45.550Z,7.20
2019-04-14T03:01:01.865Z,7.30
2019-04-14T03:02:20.862Z,7.30
2019-04-14T03:03:10.545Z,7.30
2019-04-14T03:04:07.257Z,7.30
2019-04-14T03:05:13.394Z,7.30
2019-04-14T03:06:17.834Z,7.30
2019-04-14T03:07:34.133Z,7.30
2019-04-14T03:08:45.295Z,7.30
2019-04-14T03:13:01.143Z,7.20
2019-04-14T03:15:13.086Z,7.20
2019-04-14T03:17:33.408Z,7.20
2019-04-14T03:20:44.764Z,7.30
2019-04-14T03:21:55.088Z,7.40
2019-04-14T03:22:55.709Z,7.30
2019-04-14T03:25:29.645Z,7.40
2019-04-14T03:26:58.666Z,7.40
2019-04-14T03:27:58.651Z,7.40
2019-04-14T03:29:13.187Z,7.40
2019-04-14T03:30:46.250Z,7.30
2019-04-14T03:31:52.694Z,7.20
2019-04-14T03:34:06.681Z,7.10
2019-04-14T03:37:15.318Z,7.10
2019-04-14T03:39:31.944Z,7.10
2019-04-14T03:40:19.767Z,7.10
2019-04-14T03:41:37.298Z,7.00
2019-04-14T03:42:37.971Z,7.10
2019-04-14T03:44:58.608Z,7.00
2019-04-14T03:46:57.102Z,7.10
2019-04-14T03:48:34.369Z,7.10
2019-04-14T03:49:26.452Z,7.10
2019-04-14T03:50:18.968Z,7.10
2019-04-14T03:52:35.118Z,7.10
2019-04-14T03:54:38.668Z,7.10
2019-04-14T03:56:00.670Z,7.10
2019-04-14T03:57:01.829Z,7.00
2019-04-14T03:58:08.208Z,6.90
2019-04-14T03:59:12.809Z,7.00
2019-04-14T04:00:18.065Z,7.00
2019-04-14T04:01:23.659Z,6.90
2019-04-14T04:02:29.344Z,6.90
2019-04-14T04:03:34.632Z,6.90
2019-04-14T04:04:40.111Z,6.80
2019-04-14T04:05:45.630Z,6.80
2019-04-14T04:06:51.020Z,6.90
2019-04-14T04:07:56.032Z,6.90
2019-04-14T04:09:01.810Z,6.90
2019-04-14T04:10:11.735Z,6.80
2019-04-14T04:11:17.139Z,6.80
2019-04-14T04:12:22.577Z,6.80
2019-04-14T04:13:27.978Z,6.70
2019-04-14T04:14:33.376Z,6.70
2019-04-14T04:15:38.870Z,6.80
2019-04-14T04:17:05.757Z,6.70
2019-04-14T04:18:15.559Z,6.70
2019-04-14T04:19:29.419Z,6.80
2019-04-14T04:21:08.071Z,6.70
2019-04-14T04:22:41.151Z,6.70
2019-04-14T04:23:59.599Z,6.80
2019-04-14T04:25:18.450Z,6.80
2019-04-14T04:26:51.720Z,6.90
2019-04-14T04:28:08.046Z,6.80
2019-04-14T04:29:16.073Z,6.80
2019-04-14T04:30:27.615Z,6.80
2019-04-14T04:32:06.407Z,6.80
2019-04-14T04:33:17.795Z,6.80
2019-04-14T04:34:46.888Z,6.80
2019-04-14T04:35:58.619Z,6.90
2019-04-14T04:37:17.131Z,6.90
2019-04-14T04:38:35.622Z,6.90
2019-04-14T04:39:43.206Z,6.90
2019-04-14T04:40:48.556Z,6.90
2019-04-14T04:41:53.761Z,7.00
2019-04-14T04:42:59.073Z,7.00
2019-04-14T04:44:03.541Z,7.00
2019-04-14T04:45:08.139Z,6.90
2019-04-14T04:46:13.394Z,6.90
2019-04-14T04:47:18.795Z,6.90
2019-04-14T04:48:24.137Z,6.80
2019-04-14T04:49:30.519Z,6.80
2019-04-14T04:50:35.084Z,6.90
2019-04-14T04:51:40.015Z,6.90
2019-04-14T04:52:45.124Z,7.00
2019-04-14T04:53:50.502Z,7.00
2019-04-14T04:54:55.921Z,7.00
2019-04-14T04:56:01.496Z,7.00
2019-04-14T04:57:06.770Z,7.00
2019-04-14T04:58:12.097Z,7.00
2019-04-14T04:59:17.079Z,7.00
2019-04-14T05:00:22.211Z,6.90
2019-04-14T05:01:27.432Z,6.80
2019-04-14T05:02:32.851Z,6.90
2019-04-14T05:03:38.531Z,6.90
2019-04-14T05:04:43.850Z,6.90
2019-04-14T05:06:09.722Z,6.90
2019-04-14T05:07:14.508Z,7.00
2019-04-14T05:08:19.522Z,6.80
2019-04-14T05:09:38.908Z,6.90
2019-04-14T05:10:48.797Z,6.90
2019-04-14T05:12:28.303Z,6.80
2019-04-14T05:13:36.673Z,6.80
2019-04-14T05:15:37.989Z,6.90
2019-04-14T05:16:42.460Z,6.90
2019-04-14T05:17:47.386Z,6.80
2019-04-14T05:18:52.821Z,6.80
2019-04-14T05:19:58.430Z,6.90
2019-04-14T05:21:03.905Z,6.90
2019-04-14T05:22:09.225Z,6.90
2019-04-14T05:23:14.687Z,6.90
2019-04-14T05:24:19.934Z,6.80
2019-04-14T05:25:25.426Z,6.80
2019-04-14T05:26:30.817Z,6.80
2019-04-14T05:27:36.462Z,6.80
2019-04-14T05:28:41.648Z,6.80
2019-04-14T05:29:47.202Z,6.70
2019-04-14T05:30:52.564Z,6.70
2019-04-14T05:31:57.659Z,6.70
2019-04-14T05:33:03.045Z,6.70
2019-04-14T05:34:08.577Z,6.70
2019-04-14T05:35:14.114Z,6.70
2019-04-14T05:36:19.265Z,6.80
2019-04-14T05:37:24.676Z,6.70
2019-04-14T05:38:31.909Z,6.70
2019-04-14T05:39:35.468Z,6.60
2019-04-14T05:40:40.818Z,6.60
2019-04-14T05:41:56.825Z,6.60
2019-04-14T05:42:51.597Z,6.70
2019-04-14T05:43:59.714Z,6.80
2019-04-14T05:45:02.411Z,6.80
2019-04-14T05:46:07.746Z,6.90
2019-04-14T05:47:13.150Z,7.00
2019-04-14T05:48:18.254Z,6.90
2019-04-14T05:49:31.811Z,6.90
2019-04-14T05:50:29.251Z,6.90
2019-04-14T05:51:33.629Z,7.00
2019-04-14T05:52:38.212Z,6.90
2019-04-14T05:53:43.805Z,6.90
2019-04-14T05:54:49.230Z,7.00
2019-04-14T05:55:54.551Z,7.00
2019-04-14T05:57:00.065Z,7.10
2019-04-14T05:58:05.720Z,7.20
2019-04-14T05:59:11.276Z,7.30
2019-04-14T06:00:19.092Z,7.20
2019-04-14T06:01:24.738Z,7.10
2019-04-14T06:02:30.495Z,7.10
2019-04-14T06:03:35.012Z,7.10
2019-04-14T06:04:41.546Z,7.10
2019-04-14T06:05:46.130Z,7.20
2019-04-14T06:06:50.427Z,7.30
2019-04-14T06:07:55.567Z,7.30
2019-04-14T06:08:59.994Z,7.30
2019-04-14T06:10:04.962Z,7.30
2019-04-14T06:11:09.537Z,7.30
2019-04-14T06:12:13.874Z,7.30
2019-04-14T06:13:18.226Z,7.30
2019-04-14T06:14:22.469Z,7.20
2019-04-14T06:15:26.710Z,7.30
2019-04-14T06:16:30.905Z,7.30
2019-04-14T06:17:35.209Z,7.30
2019-04-14T06:18:39.475Z,7.30
2019-04-14T06:19:43.807Z,7.20
2019-04-14T06:20:48.103Z,7.20
2019-04-14T06:21:52.428Z,7.10
2019-04-14T06:22:56.713Z,7.20
2019-04-14T06:24:00.969Z,7.10
2019-04-14T06:25:06.655Z,7.20
2019-04-14T06:26:10.922Z,7.20
2019-04-14T06:27:15.174Z,7.20
2019-04-14T06:28:19.567Z,7.20
2019-04-14T06:29:24.204Z,7.20
2019-04-14T06:30:50.377Z,7.20
2019-04-14T06:32:11.639Z,7.20
2019-04-14T06:33:22.817Z,7.20
2019-04-14T06:34:35.348Z,7.20
2019-04-14T06:36:01.676Z,7.10
2019-04-14T06:37:24.917Z,7.10
2019-04-14T06:38:32.618Z,7.20
2019-04-14T06:39:40.618Z,7.20
2019-04-14T06:40:48.595Z,7.20
2019-04-14T06:41:52.932Z,7.20
2019-04-14T06:42:57.512Z,7.10
2019-04-14T06:44:01.691Z,7.10
2019-04-14T06:45:07.225Z,7.20
2019-04-14T06:46:11.401Z,7.20
2019-04-14T06:47:15.687Z,7.20
2019-04-14T06:48:19.967Z,7.10
2019-04-14T06:49:24.352Z,7.10
2019-04-14T06:50:28.545Z,7.10
2019-04-14T06:51:32.797Z,7.10
2019-04-14T06:52:37.080Z,7.20
2019-04-14T06:53:41.263Z,7.20
2019-04-14T06:54:45.574Z,7.20
2019-04-14T06:55:51.220Z,7.20
2019-04-14T06:56:55.529Z,7.20
2019-04-14T06:58:00.162Z,7.20
2019-04-14T06:59:04.407Z,7.20
2019-04-14T07:00:08.966Z,7.30
2019-04-14T07:01:13.317Z,7.30
2019-04-14T07:02:17.911Z,7.30
2019-04-14T07:03:22.173Z,7.40
2019-04-14T07:04:26.467Z,7.40
2019-04-14T07:05:30.827Z,7.40
2019-04-14T07:06:35.172Z,7.50
2019-04-14T07:07:39.410Z,7.50
2019-04-14T07:08:43.705Z,7.50
2019-04-14T07:09:48.019Z,7.40
2019-04-14T07:10:52.217Z,7.50
2019-04-14T07:11:56.558Z,7.50
2019-04-14T07:13:01.019Z,7.50
2019-04-14T07:14:05.337Z,7.50
2019-04-14T07:15:09.807Z,7.60
2019-04-14T07:16:14.241Z,7.50
2019-04-14T07:17:18.499Z,7.50
2019-04-14T07:18:23.162Z,7.50
2019-04-14T07:19:27.481Z,7.50
2019-04-14T07:20:31.787Z,7.50
2019-04-14T07:21:35.975Z,7.60
2019-04-14T07:22:40.549Z,7.60
2019-04-14T07:23:47.135Z,7.70
2019-04-14T07:24:51.297Z,7.70
2019-04-14T07:25:55.858Z,7.70
2019-04-14T07:27:00.224Z,7.90
2019-04-14T07:28:04.385Z,7.90
2019-04-14T07:29:08.804Z,8.00
2019-04-14T07:30:32.013Z,7.90
2019-04-14T07:31:53.847Z,8.00
2019-04-14T07:33:17.128Z,8.00
2019-04-14T07:34:41.147Z,8.10
2019-04-14T07:36:03.048Z,8.20
2019-04-14T07:37:19.155Z,8.20
2019-04-14T07:38:29.871Z,8.30
2019-04-14T07:39:43.689Z,8.40
2019-04-14T07:41:05.753Z,8.40
2019-04-14T07:42:13.761Z,8.50
2019-04-14T07:43:33.974Z,8.40
2019-04-14T07:45:09.637Z,8.50
2019-04-14T07:46:30.088Z,8.50
2019-04-14T07:47:42.712Z,8.50
2019-04-14T07:49:15.229Z,8.50
2019-04-14T07:50:44.635Z,8.50
2019-04-14T07:52:05.951Z,8.50
2019-04-14T07:53:25.789Z,8.60
2019-04-14T07:54:36.147Z,8.70
2019-04-14T07:56:02.540Z,8.70
2019-04-14T07:57:14.659Z,8.80
2019-04-14T07:58:25.989Z,8.80
2019-04-14T07:59:34.179Z,8.80
2019-04-14T08:01:03.560Z,8.80
2019-04-14T08:02:38.957Z,8.80
2019-04-14T08:04:06.377Z,8.80
2019-04-14T08:05:17.303Z,8.80
2019-04-14T08:06:21.541Z,8.90
2019-04-14T08:07:26.838Z,9.00
2019-04-14T08:08:31.135Z,9.00
2019-04-14T08:09:35.767Z,9.00
2019-04-14T08:10:40.057Z,9.00
2019-04-14T08:11:44.361Z,9.00
2019-04-14T08:12:48.670Z,9.10
2019-04-14T08:13:52.931Z,9.10
2019-04-14T08:14:57.167Z,9.20
2019-04-14T08:16:01.531Z,9.20
2019-04-14T08:17:05.848Z,9.20
2019-04-14T08:18:10.099Z,9.20
2019-04-14T08:19:14.691Z,9.20
2019-04-14T08:20:27.284Z,9.20
2019-04-14T08:21:24.941Z,9.30
2019-04-14T08:22:29.195Z,9.30
2019-04-14T08:23:33.547Z,9.30
2019-04-14T08:24:37.779Z,9.20
2019-04-14T08:25:42.149Z,9.30
2019-04-14T08:26:46.333Z,9.30
2019-04-14T08:27:50.607Z,9.30
2019-04-14T08:28:54.813Z,9.30
2019-04-14T08:29:59.045Z,9.40
2019-04-14T08:31:03.205Z,9.30
2019-04-14T08:32:07.736Z,9.40
2019-04-14T08:33:12.091Z,9.40
2019-04-14T08:34:16.301Z,9.40
2019-04-14T08:35:20.623Z,9.40
2019-04-14T08:36:24.979Z,9.40
2019-04-14T08:37:29.271Z,9.40
2019-04-14T08:38:33.671Z,9.40
2019-04-14T08:39:38.214Z,9.40
2019-04-14T08:40:42.501Z,9.40
2019-04-14T08:41:56.583Z,9.40
2019-04-14T08:43:18.889Z,9.30
2019-04-14T08:44:42.287Z,9.40
2019-04-14T08:46:05.531Z,9.50
2019-04-14T08:47:28.793Z,9.50
2019-04-14T08:48:50.937Z,9.60
2019-04-14T08:50:09.322Z,9.60
2019-04-14T08:51:19.371Z,9.70
2019-04-14T08:52:30.233Z,9.80
2019-04-14T08:53:39.251Z,9.70
2019-04-14T08:54:52.291Z,9.70
2019-04-14T08:56:09.690Z,9.80
2019-04-14T08:57:31.553Z,9.80
2019-04-14T08:59:12.951Z,9.80
2019-04-14T09:00:28.343Z,9.90
2019-04-14T09:01:40.768Z,9.90
2019-04-14T09:02:59.896Z,9.90
2019-04-14T09:04:22.086Z,9.90
2019-04-14T09:05:54.547Z,10.00
2019-04-14T09:07:16.037Z,10.00
2019-04-14T09:08:30.547Z,10.00
2019-04-14T09:09:38.852Z,10.00
2019-04-14T09:10:45.806Z,9.90
2019-04-14T09:11:54.297Z,9.90
2019-04-14T09:12:59.021Z,9.90
2019-04-14T09:14:03.312Z,9.80
2019-04-14T09:15:08.425Z,9.90
2019-04-14T09:16:12.687Z,9.90
2019-04-14T09:17:17.057Z,10.00
2019-04-14T09:18:21.361Z,10.00
2019-04-14T09:19:25.842Z,9.90
2019-04-14T09:20:30.129Z,10.10
2019-04-14T09:21:34.292Z,10.10
2019-04-14T09:22:38.446Z,10.10
2019-04-14T09:23:42.986Z,10.10
2019-04-14T09:24:47.267Z,10.10
2019-04-14T09:25:51.563Z,10.20
2019-04-14T09:26:55.866Z,10.20
2019-04-14T09:28:00.486Z,10.40
2019-04-14T09:29:04.974Z,10.30
2019-04-14T09:30:11.415Z,10.30
2019-04-14T09:31:15.721Z,10.40
2019-04-14T09:32:19.996Z,10.40
2019-04-14T09:33:24.369Z,10.50
2019-04-14T09:34:28.863Z,10.50
2019-04-14T09:35:33.434Z,10.60
2019-04-14T09:36:37.784Z,10.60
2019-04-14T09:37:41.990Z,10.70
2019-04-14T09:38:46.219Z,10.70
2019-04-14T09:39:50.603Z,10.70
2019-04-14T09:40:54.963Z,10.70
2019-04-14T09:41:59.236Z,10.70
2019-04-14T09:43:03.616Z,10.70
2019-04-14T09:44:07.954Z,10.70
2019-04-14T09:45:12.255Z,10.80
2019-04-14T09:46:16.591Z,10.70
2019-04-14T09:47:20.829Z,10.80
2019-04-14T09:48:25.053Z,10.90
2019-04-14T09:49:29.217Z,10.90
2019-04-14T09:50:33.497Z,10.90
2019-04-14T09:51:37.872Z,10.90
2019-04-14T09:52:42.046Z,10.90
2019-04-14T09:53:46.351Z,11.00
2019-04-14T09:54:50.733Z,11.00
2019-04-14T09:55:55.064Z,11.00
2019-04-14T09:56:59.387Z,11.20
2019-04-14T09:58:05.240Z,11.30
2019-04-14T09:59:09.406Z,11.40
2019-04-14T10:00:14.933Z,11.50
2019-04-14T10:01:19.251Z,11.60
2019-04-14T10:02:23.979Z,11.70
2019-04-14T10:03:28.137Z,11.70
2019-04-14T10:04:32.564Z,11.70
2019-04-14T10:05:36.835Z,11.70
2019-04-14T10:06:41.069Z,11.70
2019-04-14T10:07:45.573Z,11.70
2019-04-14T10:08:49.948Z,11.60
2019-04-14T10:09:54.438Z,11.70
2019-04-14T10:10:58.779Z,11.80
2019-04-14T10:12:03.127Z,11.80
2019-04-14T10:13:07.715Z,11.80
2019-04-14T10:14:12.109Z,11.80
2019-04-14T10:15:16.312Z,11.90
2019-04-14T10:16:20.641Z,12.00
2019-04-14T10:17:25.045Z,11.90
2019-04-14T10:18:29.250Z,12.00
2019-04-14T10:19:33.755Z,12.00
2019-04-14T10:20:37.991Z,12.00
2019-04-14T10:21:42.327Z,11.90
2019-04-14T10:22:46.911Z,12.00
2019-04-14T10:23:51.091Z,11.90
2019-04-14T10:24:55.333Z,12.00
2019-04-14T10:25:59.546Z,12.10
2019-04-14T10:27:03.767Z,12.10
2019-04-14T10:28:07.991Z,12.10
2019-04-14T10:29:12.143Z,12.10
2019-04-14T10:30:16.497Z,12.20
2019-04-14T10:31:20.699Z,12.30
2019-04-14T10:32:25.417Z,12.40
2019-04-14T10:33:29.751Z,12.40
2019-04-14T10:34:34.051Z,12.40
2019-04-14T10:35:38.262Z,12.50
2019-04-14T10:36:42.582Z,12.50
2019-04-14T10:37:46.834Z,12.40
2019-04-14T10:38:51.189Z,12.40
2019-04-14T10:39:55.426Z,12.40
2019-04-14T10:40:59.738Z,12.30
2019-04-14T10:42:04.037Z,12.30
2019-04-14T10:43:08.437Z,12.30
2019-04-14T10:44:13.133Z,12.40
2019-04-14T10:45:18.459Z,12.40
2019-04-14T10:46:22.781Z,12.40
2019-04-14T10:47:27.235Z,12.40
2019-04-14T10:48:31.557Z,12.50
2019-04-14T10:49:35.729Z,12.50
2019-04-14T10:50:40.047Z,12.50
2019-04-14T10:51:44.415Z,12.50
2019-04-14T10:52:48.701Z,12.70
2019-04-14T10:53:52.985Z,12.80
2019-04-14T10:54:57.550Z,12.80
2019-04-14T10:56:01.846Z,12.90
2019-04-14T10:57:06.171Z,12.90
2019-04-14T10:58:10.541Z,13.00
2019-04-14T10:59:15.092Z,13.00
2019-04-14T11:00:19.729Z,13.00
2019-04-14T11:01:24.063Z,13.00
2019-04-14T11:02:28.365Z,13.00
2019-04-14T11:03:32.934Z,13.00
2019-04-14T11:04:37.241Z,13.00
2019-04-14T11:05:49.630Z,13.00
2019-04-14T11:07:03.362Z,12.90
2019-04-14T11:08:07.556Z,12.90
2019-04-14T11:09:15.009Z,12.90
2019-04-14T11:10:19.291Z,12.90
2019-04-14T11:11:23.503Z,13.00
2019-04-14T11:12:27.760Z,13.10
2019-04-14T11:13:32.043Z,13.10
2019-04-14T11:14:36.204Z,13.10
2019-04-14T11:15:40.457Z,13.10
2019-04-14T11:16:44.756Z,13.10
2019-04-14T11:17:49.159Z,13.10
2019-04-14T11:18:53.357Z,13.10
2019-04-14T11:19:57.893Z,13.00
2019-04-14T11:21:02.070Z,13.10
2019-04-14T11:22:06.359Z,13.00
2019-04-14T11:23:10.696Z,13.10
2019-04-14T11:24:14.992Z,12.90
2019-04-14T11:25:19.267Z,12.90
2019-04-14T11:26:23.465Z,12.80
2019-04-14T11:27:27.627Z,12.90
2019-04-14T11:28:31.930Z,12.80
2019-04-14T11:29:36.167Z,12.80
2019-04-14T11:30:40.444Z,12.80
2019-04-14T11:32:19.125Z,12.80
2019-04-14T11:33:54.308Z,12.80
2019-04-14T11:35:07.236Z,12.90
2019-04-14T11:36:33.536Z,12.80
2019-04-14T11:38:12.187Z,12.90
2019-04-14T11:39:17.321Z,12.90
2019-04-14T11:40:24.784Z,12.90
2019-04-14T11:41:29.185Z,12.90
2019-04-14T11:42:33.435Z,12.90
2019-04-14T11:43:37.639Z,12.90
2019-04-14T11:44:42.047Z,12.90
2019-04-14T11:45:46.509Z,12.90
2019-04-14T11:46:50.905Z,12.90
2019-04-14T11:47:55.278Z,12.90
2019-04-14T11:48:59.608Z,12.90
2019-04-14T11:50:04.139Z,12.90
2019-04-14T11:51:08.293Z,12.90
2019-04-14T11:52:12.652Z,12.90
2019-04-14T11:53:17.122Z,12.90
2019-04-14T11:54:21.460Z,12.80
2019-04-14T11:55:25.957Z,12.80
2019-04-14T11:56:31.291Z,12.90
2019-04-14T11:57:35.534Z,12.90
2019-04-14T11:58:39.821Z,12.90
2019-04-14T12:00:01.863Z,12.80
2019-04-14T12:01:37.231Z,12.80
2019-04-14T12:02:59.369Z,12.70
2019-04-14T12:04:25.837Z,12.70
2019-04-14T12:05:58.257Z,12.70
2019-04-14T12:07:11.613Z,12.70
2019-04-14T12:08:23.463Z,12.80
2019-04-14T12:09:33.805Z,12.80
2019-04-14T12:10:37.975Z,12.80
2019-04-14T12:11:42.283Z,12.90
2019-04-14T12:12:46.651Z,13.00
2019-04-14T12:13:50.866Z,12.90
2019-04-14T12:14:55.215Z,13.00
2019-04-14T12:15:59.475Z,13.00
2019-04-14T12:17:03.805Z,13.00
2019-04-14T12:18:08.026Z,13.00
2019-04-14T12:19:12.302Z,13.00
2019-04-14T12:20:16.465Z,13.10
2019-04-14T12:21:20.654Z,13.10
2019-04-14T12:22:25.048Z,13.10
2019-04-14T12:23:29.279Z,13.10
2019-04-14T12:24:33.517Z,13.10
2019-04-14T12:25:37.952Z,13.10
2019-04-14T12:26:42.255Z,13.10
2019-04-14T12:27:46.618Z,13.10
2019-04-14T12:28:51.583Z,13.00
2019-04-14T12:29:56.700Z,13.00
2019-04-14T12:31:01.999Z,13.00
2019-04-14T12:32:08.548Z,12.90
2019-04-14T12:33:12.853Z,12.80
2019-04-14T12:34:18.521Z,12.80
2019-04-14T12:35:22.983Z,12.80
2019-04-14T12:36:27.340Z,12.90
2019-04-14T12:37:31.577Z,12.80
2019-04-14T12:38:35.777Z,12.90
2019-04-14T12:39:39.979Z,12.90
2019-04-14T12:40:44.431Z,12.90
2019-04-14T12:41:53.355Z,12.80
2019-04-14T12:43:03.903Z,12.90
2019-04-14T12:44:26.383Z,12.80
2019-04-14T12:45:45.672Z,12.80
2019-04-14T12:47:06.331Z,12.80
2019-04-14T12:48:28.267Z,12.80
2019-04-14T12:49:37.179Z,12.90
2019-04-14T12:50:46.159Z,12.90
2019-04-14T12:52:20.265Z,12.80
2019-04-14T12:53:13.999Z,12.70
2019-04-14T12:54:18.337Z,12.70
2019-04-14T12:55:22.735Z,12.70
2019-04-14T12:56:28.469Z,12.70
2019-04-14T12:57:45.323Z,12.70
2019-04-14T12:59:14.396Z,12.80
2019-04-14T13:00:28.831Z,12.90
2019-04-14T13:01:37.515Z,13.00
2019-04-14T13:02:45.166Z,13.00
2019-04-14T13:03:49.419Z,13.10
2019-04-14T13:04:55.346Z,13.00
2019-04-14T13:05:59.555Z,12.90
2019-04-14T13:07:03.807Z,12.90
2019-04-14T13:08:07.930Z,12.90
2019-04-14T13:09:14.448Z,12.90
2019-04-14T13:10:18.416Z,12.80
2019-04-14T13:11:22.655Z,12.90
2019-04-14T13:12:26.918Z,12.90
2019-04-14T13:13:31.245Z,12.80
2019-04-14T13:14:35.560Z,12.80
2019-04-14T13:15:39.703Z,12.80
2019-04-14T13:16:44.179Z,12.70
2019-04-14T13:17:48.351Z,12.70
2019-04-14T13:18:52.711Z,12.70
2019-04-14T13:19:56.973Z,12.80
2019-04-14T13:21:01.221Z,12.70
2019-04-14T13:22:05.465Z,12.70
2019-04-14T13:23:09.791Z,12.70
2019-04-14T13:24:14.142Z,12.80
2019-04-14T13:25:18.445Z,12.80
2019-04-14T13:26:22.729Z,12.90
2019-04-14T13:27:27.050Z,12.90
2019-04-14T13:28:31.417Z,12.80
2019-04-14T13:29:35.668Z,12.80
2019-04-14T13:30:43.855Z,12.80
2019-04-14T13:31:48.139Z,12.70
2019-04-14T13:32:52.365Z,12.70
2019-04-14T13:33:56.598Z,12.70
2019-04-14T13:35:00.894Z,12.80
2019-04-14T13:36:05.183Z,12.80
2019-04-14T13:37:09.481Z,12.70
2019-04-14T13:38:14.001Z,12.60
2019-04-14T13:39:18.293Z,12.60
2019-04-14T13:40:22.710Z,12.70
2019-04-14T13:41:27.030Z,12.70
2019-04-14T13:42:31.199Z,12.70
2019-04-14T13:43:35.712Z,12.70
2019-04-14T13:44:40.070Z,12.70
2019-04-14T13:45:44.230Z,12.70
2019-04-14T13:46:48.356Z,12.60
2019-04-14T13:47:52.555Z,12.60
2019-04-14T13:48:56.727Z,12.50
2019-04-14T13:50:01.100Z,12.50
2019-04-14T13:51:05.399Z,12.50
2019-04-14T13:52:09.561Z,12.50
2019-04-14T13:53:13.880Z,12.50
2019-04-14T13:54:18.178Z,12.40
2019-04-14T13:55:22.463Z,12.40
2019-04-14T13:56:26.814Z,12.40
2019-04-14T13:57:31.067Z,12.40
2019-04-14T13:58:39.070Z,12.30
2019-04-14T13:59:41.219Z,12.30
2019-04-14T14:00:46.098Z,12.30
2019-04-14T14:01:50.265Z,12.20
2019-04-14T14:02:54.522Z,12.20
2019-04-14T14:03:58.654Z,12.20
2019-04-14T14:05:02.907Z,12.20
2019-04-14T14:06:07.067Z,12.10
2019-04-14T14:07:11.375Z,12.00
2019-04-14T14:08:15.722Z,11.90
2019-04-14T14:09:19.867Z,11.90
2019-04-14T14:10:24.167Z,11.90
2019-04-14T14:11:37.471Z,11.90
2019-04-14T14:13:04.332Z,12.00
2019-04-14T14:14:18.571Z,12.00
2019-04-14T14:15:41.778Z,12.00
2019-04-14T14:17:14.091Z,12.00
2019-04-14T14:18:38.236Z,12.00
2019-04-14T14:19:49.441Z,12.10
2019-04-14T14:21:12.651Z,12.00
2019-04-14T14:22:38.993Z,12.00
2019-04-14T14:23:58.472Z,12.00
2019-04-14T14:25:10.338Z,12.00
2019-04-14T14:26:15.792Z,12.10
2019-04-14T14:27:20.055Z,12.00
2019-04-14T14:28:24.354Z,12.00
2019-04-14T14:29:28.666Z,12.00
2019-04-14T14:30:32.925Z,12.00
2019-04-14T14:31:37.172Z,12.00
2019-04-14T14:32:41.530Z,12.00
2019-04-14T14:33:46.202Z,12.10
2019-04-14T14:34:50.371Z,12.10
2019-04-14T14:35:54.578Z,12.20
2019-04-14T14:36:58.849Z,12.20
2019-04-14T14:38:03.195Z,12.20
2019-04-14T14:39:09.896Z,12.20
2019-04-14T14:40:14.271Z,12.20
2019-04-14T14:41:18.597Z,12.30
2019-04-14T14:42:22.755Z,12.20
2019-04-14T14:43:27.094Z,12.20
2019-04-14T14:44:36.490Z,12.10
2019-04-14T14:45:53.879Z,12.20
2019-04-14T14:47:14.457Z,12.10
2019-04-14T14:48:24.834Z,12.00
2019-04-14T14:49:48.079Z,12.00
2019-04-14T14:50:59.575Z,12.00
2019-04-14T14:52:07.535Z,12.00
2019-04-14T14:53:12.618Z,12.10
2019-04-14T14:54:16.949Z,12.00
2019-04-14T14:55:21.199Z,12.10
2019-04-14T14:56:25.524Z,12.10
2019-04-14T14:57:29.808Z,12.10
2019-04-14T14:58:33.989Z,12.00
2019-04-14T14:59:38.297Z,11.90
2019-04-14T15:00:42.827Z,11.90
2019-04-14T15:01:47.019Z,11.90
2019-04-14T15:02:51.217Z,12.00
2019-04-14T15:03:55.382Z,11.90
2019-04-14T15:04:59.679Z,11.90
2019-04-14T15:06:04.287Z,11.90
2019-04-14T15:07:08.587Z,11.90
2019-04-14T15:08:12.867Z,11.90
2019-04-14T15:09:17.143Z,12.00
2019-04-14T15:10:21.459Z,12.00
2019-04-14T15:11:25.655Z,12.00
2019-04-14T15:12:29.935Z,12.00
2019-04-14T15:13:34.300Z,12.00
2019-04-14T15:14:38.490Z,12.00
2019-04-14T15:15:42.755Z,12.00
2019-04-14T15:16:46.952Z,11.90